createdAt,value
2022-08-22T00:01:17.852Z,18.00
2022-08-22T00:04:00.279Z,18.00
2022-08-22T00:06:43.745Z,18.00
2022-08-22T00:09:32.065Z,18.00
2022-08-22T00:12:23.461Z,18.00
2022-08-22T00:15:08.030Z,18.00
2022-08-22T00:18:35.592Z,18.00
2022-08-22T00:21:23.469Z,18.00
2022-08-22T00:24:22.787Z,18.00
2022-08-22T00:27:24.094Z,18.00
2022-08-22T00:30:03.000Z,17.90
2022-08-22T00:32:47.018Z,17.90
2022-08-22T00:35:43.039Z,18.00
2022-08-22T00:38:20.449Z,18.00
2022-08-22T00:41:48.665Z,17.90
2022-08-22T00:44:34.124Z,17.90
2022-08-22T00:47:21.482Z,17.80
2022-08-22T00:50:26.316Z,17.70
2022-08-22T00:53:47.373Z,17.70
2022-08-22T00:56:47.200Z,17.70
2022-08-22T00:59:47.909Z,17.70
2022-08-22T01:02:52.840Z,17.70
2022-08-22T01:05:35.170Z,17.80
2022-08-22T01:08:26.368Z,17.70
2022-08-22T01:11:35.255Z,17.60
2022-08-22T01:14:34.289Z,17.60
2022-08-22T01:17:44.281Z,17.60
2022-08-22T01:20:36.237Z,17.60
2022-08-22T01:23:36.266Z,17.60
2022-08-22T01:26:47.884Z,17.60
2022-08-22T01:30:03.846Z,17.60
2022-08-22T01:32:31.859Z,17.50
2022-08-22T01:35:23.273Z,17.50
2022-08-22T01:38:05.243Z,17.60
2022-08-22T01:41:00.536Z,17.60
2022-08-22T01:44:06.871Z,17.50
2022-08-22T01:47:02.766Z,17.50
2022-08-22T01:49:38.148Z,17.50
2022-08-22T01:52:13.082Z,17.50
2022-08-22T01:54:52.795Z,17.60
2022-08-22T01:57:19.828Z,17.50
2022-08-22T01:59:48.992Z,17.50
2022-08-22T02:02:34.523Z,17.50
2022-08-22T02:05:40.409Z,17.50
2022-08-22T02:08:36.919Z,17.60
2022-08-22T02:11:10.713Z,17.70
2022-08-22T02:14:15.005Z,17.60
2022-08-22T02:16:44.692Z,17.70
2022-08-22T02:19:11.833Z,17.60
2022-08-22T02:21:53.756Z,17.70
2022-08-22T02:24:33.316Z,17.60
2022-08-22T02:27:04.283Z,17.60
2022-08-22T02:29:50.674Z,17.70
2022-08-22T02:32:33.221Z,17.70
2022-08-22T02:35:18.731Z,17.60
2022-08-22T02:37:54.852Z,17.60
2022-08-22T02:40:34.038Z,17.60
2022-08-22T02:43:43.738Z,17.60
2022-08-22T02:46:32.873Z,17.60
2022-08-22T02:49:13.162Z,17.60
2022-08-22T02:51:50.041Z,17.60
2022-08-22T02:54:28.844Z,17.50
2022-08-22T02:57:30.642Z,17.60
2022-08-22T03:00:25.008Z,17.60
2022-08-22T03:02:59.285Z,17.60
2022-08-22T03:05:36.807Z,17.40
2022-08-22T03:08:13.174Z,17.50
2022-08-22T03:10:46.061Z,17.50
2022-08-22T03:13:18.853Z,17.50
2022-08-22T03:15:54.180Z,17.40
2022-08-22T03:18:57.245Z,17.40
2022-08-22T03:21:32.911Z,17.40
2022-08-22T03:24:23.561Z,17.40
2022-08-22T03:26:58.737Z,17.30
2022-08-22T03:29:33.116Z,17.30
2022-08-22T03:32:09.136Z,17.30
2022-08-22T03:34:36.276Z,17.30
2022-08-22T03:37:13.516Z,17.30
2022-08-22T03:39:55.593Z,17.20
2022-08-22T03:42:41.536Z,17.20
2022-08-22T03:45:32.962Z,17.20
2022-08-22T03:48:21.745Z,17.10
2022-08-22T03:50:56.012Z,17.10
2022-08-22T03:53:49.191Z,17.10
2022-08-22T03:56:25.168Z,17.10
2022-08-22T03:59:34.553Z,17.20
2022-08-22T04:02:24.649Z,17.20
2022-08-22T04:05:19.233Z,17.20
2022-08-22T04:08:05.088Z,17.20
2022-08-22T04:10:53.816Z,17.10
2022-08-22T04:13:50.055Z,17.10
2022-08-22T04:16:44.605Z,17.10
2022-08-22T04:19:21.857Z,17.20
2022-08-22T04:21:57.992Z,17.20
2022-08-22T04:24:37.421Z,17.10
2022-08-22T04:27:10.245Z,17.20
2022-08-22T04:30:09.700Z,17.20
2022-08-22T04:32:44.455Z,17.20
2022-08-22T04:35:11.272Z,17.10
2022-08-22T04:37:46.494Z,17.10
2022-08-22T04:40:37.323Z,17.10
2022-08-22T04:43:10.554Z,17.10
2022-08-22T04:45:48.891Z,17.10
2022-08-22T04:48:33.742Z,17.10
2022-08-22T04:51:11.358Z,17.10
2022-08-22T04:53:50.394Z,17.10
2022-08-22T04:56:25.834Z,17.10
2022-08-22T04:59:02.951Z,17.10
2022-08-22T05:01:48.203Z,17.10
2022-08-22T05:04:59.318Z,17.10
2022-08-22T05:07:33.938Z,17.10
2022-08-22T05:10:12.478Z,17.10
2022-08-22T05:13:10.530Z,17.10
2022-08-22T05:15:43.727Z,17.10
2022-08-22T05:18:14.267Z,17.10
2022-08-22T05:20:41.189Z,17.10
2022-08-22T05:23:35.801Z,17.10
2022-08-22T05:26:04.145Z,17.10
2022-08-22T05:28:53.591Z,17.00
2022-08-22T05:31:26.618Z,17.10
2022-08-22T05:33:57.169Z,17.20
2022-08-22T05:36:29.243Z,17.10
2022-08-22T05:39:03.941Z,17.10
2022-08-22T05:41:34.649Z,17.10
2022-08-22T05:44:05.194Z,17.20
2022-08-22T05:46:42.220Z,17.20
2022-08-22T05:49:37.110Z,17.20
2022-08-22T05:52:13.073Z,17.30
2022-08-22T05:54:52.939Z,17.30
2022-08-22T05:57:32.067Z,17.40
2022-08-22T06:00:20.380Z,17.40
2022-08-22T06:03:15.043Z,17.40
2022-08-22T06:05:43.162Z,17.40
2022-08-22T06:08:36.016Z,17.40
2022-08-22T06:11:07.723Z,17.40
2022-08-22T06:14:03.832Z,17.50
2022-08-22T06:16:33.892Z,17.50
2022-08-22T06:19:00.982Z,17.50
2022-08-22T06:21:38.670Z,17.50
2022-08-22T06:24:08.770Z,17.60
2022-08-22T06:26:38.342Z,17.60
2022-08-22T06:29:05.799Z,17.60
2022-08-22T06:31:47.422Z,17.60
2022-08-22T06:34:23.073Z,17.70
2022-08-22T06:36:50.763Z,17.70
2022-08-22T06:39:19.623Z,17.80
2022-08-22T06:42:03.269Z,17.80
2022-08-22T06:44:35.981Z,17.70
2022-08-22T06:47:06.748Z,17.80
2022-08-22T06:49:35.147Z,17.80
2022-08-22T06:52:07.512Z,17.80
2022-08-22T06:54:37.128Z,17.80
2022-08-22T06:57:05.416Z,17.80
2022-08-22T06:59:35.410Z,17.70
2022-08-22T07:02:15.921Z,17.70
2022-08-22T07:04:43.523Z,17.80
2022-08-22T07:07:10.479Z,17.90
2022-08-22T07:09:40.662Z,18.00
2022-08-22T07:12:21.274Z,18.00
2022-08-22T07:14:53.372Z,18.10
2022-08-22T07:17:59.210Z,18.20
2022-08-22T07:20:36.421Z,18.40
2022-08-22T07:23:06.941Z,18.60
2022-08-22T07:25:37.554Z,18.70
2022-08-22T07:28:09.648Z,18.70
2022-08-22T07:30:42.923Z,18.80
2022-08-22T07:33:47.003Z,19.10
2022-08-22T07:36:43.322Z,19.40
2022-08-22T07:39:27.269Z,19.60
2022-08-22T07:42:13.193Z,19.20
2022-08-22T07:45:09.557Z,19.40
2022-08-22T07:48:25.416Z,19.80
2022-08-22T07:50:53.041Z,19.40
2022-08-22T07:53:40.193Z,19.30
2022-08-22T07:56:11.000Z,19.50
2022-08-22T07:58:39.652Z,19.60
2022-08-22T08:01:08.960Z,19.90
2022-08-22T08:03:36.060Z,20.10
2022-08-22T08:06:03.180Z,19.60
2022-08-22T08:08:34.582Z,19.70
2022-08-22T08:11:02.102Z,20.10
2022-08-22T08:13:35.896Z,20.20
2022-08-22T08:16:04.522Z,20.10
2022-08-22T08:18:34.035Z,20.30
2022-08-22T08:21:04.590Z,20.60
2022-08-22T08:23:39.713Z,20.70
2022-08-22T08:26:12.419Z,21.00
2022-08-22T08:28:42.289Z,21.10
2022-08-22T08:31:32.181Z,21.40
2022-08-22T08:34:11.066Z,21.50
2022-08-22T08:36:40.133Z,21.60
2022-08-22T08:39:22.249Z,21.70
2022-08-22T08:41:55.213Z,21.80
2022-08-22T08:44:43.231Z,21.60
2022-08-22T08:47:33.764Z,21.60
2022-08-22T08:50:21.963Z,21.50
2022-08-22T08:53:00.919Z,21.80
2022-08-22T08:55:48.093Z,22.20
2022-08-22T08:58:32.013Z,22.40
2022-08-22T09:01:38.834Z,22.40
2022-08-22T09:04:21.818Z,22.50
2022-08-22T09:06:56.745Z,22.60
2022-08-22T09:09:45.712Z,22.70
2022-08-22T09:12:26.714Z,22.70
2022-08-22T09:15:14.357Z,22.60
2022-08-22T09:18:06.415Z,22.80
2022-08-22T09:20:51.839Z,22.80
2022-08-22T09:23:46.012Z,22.80
2022-08-22T09:26:48.954Z,22.70
2022-08-22T09:29:22.375Z,22.60
2022-08-22T09:31:57.078Z,22.90
2022-08-22T09:34:38.060Z,22.90
2022-08-22T09:37:21.263Z,22.70
2022-08-22T09:40:21.276Z,22.70
2022-08-22T09:43:05.492Z,22.40
2022-08-22T09:45:45.542Z,22.40
2022-08-22T09:48:27.310Z,22.40
2022-08-22T09:51:31.545Z,22.40
2022-08-22T09:54:22.978Z,22.60
2022-08-22T09:57:02.783Z,22.60
2022-08-22T09:59:36.902Z,22.60
2022-08-22T10:02:30.263Z,22.70
2022-08-22T10:05:04.167Z,22.80
2022-08-22T10:07:56.448Z,22.70
2022-08-22T10:10:50.182Z,22.80
2022-08-22T10:13:42.091Z,22.90
2022-08-22T10:16:20.846Z,22.90
2022-08-22T10:19:09.247Z,23.00
2022-08-22T10:21:46.425Z,23.20
2022-08-22T10:24:36.026Z,23.10
2022-08-22T10:27:15.741Z,23.20
2022-08-22T10:29:54.278Z,23.10
2022-08-22T10:32:30.786Z,23.20
2022-08-22T10:35:19.908Z,23.30
2022-08-22T10:37:58.891Z,23.20
2022-08-22T10:40:33.218Z,23.20
2022-08-22T10:43:13.202Z,23.30
2022-08-22T10:45:42.534Z,23.30
2022-08-22T10:48:10.546Z,23.20
2022-08-22T10:50:43.150Z,23.10
2022-08-22T10:53:33.025Z,23.20
2022-08-22T10:56:11.829Z,23.10
2022-08-22T10:59:04.145Z,23.00
2022-08-22T11:01:41.986Z,22.90
2022-08-22T11:04:28.303Z,22.90
2022-08-22T11:07:48.759Z,23.00
2022-08-22T11:10:40.053Z,23.00
2022-08-22T11:13:28.927Z,23.00
2022-08-22T11:16:07.212Z,23.00
2022-08-22T11:19:04.900Z,23.10
2022-08-22T11:22:20.662Z,23.10
2022-08-22T11:25:14.562Z,23.20
2022-08-22T11:28:03.674Z,23.30
2022-08-22T11:30:45.102Z,23.20
2022-08-22T11:33:21.941Z,23.30
2022-08-22T11:36:31.731Z,23.40
2022-08-22T11:39:23.945Z,23.30
2022-08-22T11:42:21.810Z,23.40
2022-08-22T11:45:04.138Z,23.50
2022-08-22T11:47:35.300Z,23.70
2022-08-22T11:50:05.582Z,23.70
2022-08-22T11:52:51.699Z,23.80
2022-08-22T11:55:20.310Z,23.90
2022-08-22T11:57:50.713Z,24.00
2022-08-22T12:00:25.537Z,24.10
2022-08-22T12:03:13.007Z,24.10
2022-08-22T12:05:52.525Z,24.00
2022-08-22T12:08:37.391Z,24.00
2022-08-22T12:11:19.536Z,24.00
2022-08-22T12:14:04.169Z,24.10
2022-08-22T12:16:52.315Z,24.00
2022-08-22T12:19:19.664Z,24.20
2022-08-22T12:22:26.685Z,24.30
2022-08-22T12:25:38.550Z,24.30
2022-08-22T12:28:53.761Z,24.40
2022-08-22T12:31:47.201Z,24.30
2022-08-22T12:34:38.898Z,24.30
2022-08-22T12:37:52.083Z,24.40
2022-08-22T12:41:08.159Z,24.40
2022-08-22T12:44:21.449Z,24.40
2022-08-22T12:47:25.667Z,24.50
2022-08-22T12:50:07.680Z,24.60
2022-08-22T12:52:48.489Z,24.60
2022-08-22T12:55:25.018Z,24.60
2022-08-22T12:58:13.756Z,24.60
2022-08-22T13:00:45.248Z,24.70
2022-08-22T13:03:40.386Z,24.60
2022-08-22T13:06:33.497Z,24.60
2022-08-22T13:09:01.781Z,24.50
2022-08-22T13:11:29.238Z,24.50
2022-08-22T13:13:59.037Z,24.50
2022-08-22T13:16:38.246Z,24.60
2022-08-22T13:19:13.571Z,24.60
2022-08-22T13:21:45.718Z,24.30
2022-08-22T13:24:22.544Z,24.40
2022-08-22T13:26:55.737Z,24.50
2022-08-22T13:29:39.614Z,24.40
2022-08-22T13:32:17.446Z,24.30
2022-08-22T13:34:46.642Z,24.40
2022-08-22T13:37:24.526Z,24.30
2022-08-22T13:39:53.990Z,24.40
2022-08-22T13:42:30.359Z,24.30
2022-08-22T13:45:02.589Z,24.30
2022-08-22T13:47:34.503Z,24.30
2022-08-22T13:50:14.946Z,24.30
2022-08-22T13:52:52.566Z,24.20
2022-08-22T13:55:34.278Z,24.30
2022-08-22T13:58:21.948Z,24.40
2022-08-22T14:01:01.212Z,23.90
2022-08-22T14:03:49.119Z,24.10
2022-08-22T14:06:35.470Z,24.20
2022-08-22T14:09:31.230Z,24.30
2022-08-22T14:12:12.179Z,24.30
2022-08-22T14:14:46.207Z,24.40
2022-08-22T14:17:23.589Z,24.40
2022-08-22T14:20:13.753Z,24.40
2022-08-22T14:23:04.830Z,24.30
2022-08-22T14:25:37.627Z,24.40
2022-08-22T14:28:21.074Z,24.40
2022-08-22T14:30:58.215Z,24.40
2022-08-22T14:33:49.428Z,24.20
2022-08-22T14:36:25.573Z,24.30
2022-08-22T14:39:11.582Z,24.40
2022-08-22T14:41:52.898Z,24.50
2022-08-22T14:44:33.485Z,24.50
2022-08-22T14:47:02.268Z,24.60
2022-08-22T14:49:33.957Z,24.60
2022-08-22T14:52:19.538Z,24.90
2022-08-22T14:54:47.264Z,25.00
2022-08-22T14:57:15.018Z,25.00
2022-08-22T14:59:50.078Z,25.10
2022-08-22T15:02:30.753Z,25.00
2022-08-22T15:05:01.876Z,24.90
2022-08-22T15:07:36.279Z,24.90
2022-08-22T15:10:06.866Z,25.00
2022-08-22T15:12:47.827Z,25.00
2022-08-22T15:15:49.788Z,25.10
2022-08-22T15:18:28.009Z,25.20
2022-08-22T15:21:24.382Z,25.20
2022-08-22T15:23:53.835Z,25.30
2022-08-22T15:26:37.588Z,25.30
2022-08-22T15:29:15.322Z,25.30
2022-08-22T15:31:46.611Z,25.30
2022-08-22T15:34:32.866Z,25.40
2022-08-22T15:37:16.447Z,25.10
2022-08-22T15:40:12.065Z,25.00
2022-08-22T15:42:44.779Z,25.10
2022-08-22T15:45:19.973Z,25.10
2022-08-22T15:47:50.183Z,25.00
2022-08-22T15:50:33.958Z,24.90
2022-08-22T15:53:24.069Z,24.80
2022-08-22T15:56:05.196Z,24.80
2022-08-22T15:58:33.428Z,24.70
2022-08-22T16:01:19.208Z,24.80
2022-08-22T16:04:03.250Z,24.80
2022-08-22T16:06:50.538Z,24.70
2022-08-22T16:09:48.232Z,24.50
2022-08-22T16:12:31.786Z,24.60
2022-08-22T16:15:01.742Z,24.50
2022-08-22T16:17:28.796Z,24.60
2022-08-22T16:20:08.092Z,24.60
2022-08-22T16:22:56.094Z,24.40
2022-08-22T16:25:44.823Z,24.50
2022-08-22T16:28:56.862Z,24.60
2022-08-22T16:31:56.497Z,24.50
2022-08-22T16:34:38.764Z,24.60
2022-08-22T16:37:08.807Z,24.60
2022-08-22T16:40:04.645Z,24.50
2022-08-22T16:42:35.593Z,24.50
2022-08-22T16:45:11.755Z,24.40
2022-08-22T16:47:58.159Z,24.50
2022-08-22T16:50:30.942Z,24.50
2022-08-22T16:53:01.433Z,24.50
2022-08-22T16:55:31.912Z,24.40
2022-08-22T16:58:06.997Z,24.30
2022-08-22T17:00:58.083Z,24.30
2022-08-22T17:03:51.975Z,24.30
2022-08-22T17:06:54.450Z,24.30
2022-08-22T17:09:43.650Z,24.30
2022-08-22T17:12:34.917Z,24.30
2022-08-22T17:15:22.104Z,24.30
2022-08-22T17:18:11.932Z,24.20
2022-08-22T17:20:54.458Z,24.20
2022-08-22T17:23:34.853Z,24.10
2022-08-22T17:26:34.431Z,24.00
2022-08-22T17:29:20.945Z,24.00
2022-08-22T17:32:17.307Z,24.10
2022-08-22T17:35:13.701Z,24.00
2022-08-22T17:38:23.473Z,24.00
2022-08-22T17:41:08.218Z,23.90
2022-08-22T17:44:03.764Z,23.90
2022-08-22T17:46:53.145Z,23.80
2022-08-22T17:49:41.320Z,23.70
2022-08-22T17:52:38.101Z,23.70
2022-08-22T17:55:33.781Z,23.70
2022-08-22T17:58:03.944Z,23.70
2022-08-22T18:00:36.141Z,23.60
2022-08-22T18:03:09.227Z,23.40
2022-08-22T18:05:49.445Z,23.40
2022-08-22T18:11:20.915Z,23.30
2022-08-22T18:14:05.266Z,23.20
2022-08-22T18:16:52.542Z,23.20
2022-08-22T18:19:41.105Z,23.20
2022-08-22T18:22:13.768Z,23.10
2022-08-22T18:25:00.661Z,23.10
2022-08-22T18:27:36.349Z,23.00
2022-08-22T18:30:20.495Z,22.90
2022-08-22T18:32:52.436Z,22.90
2022-08-22T18:35:30.288Z,22.90
2022-08-22T18:38:20.216Z,22.80
2022-08-22T18:40:51.968Z,22.80
2022-08-22T18:43:26.157Z,22.70
2022-08-22T18:45:57.361Z,22.70
2022-08-22T18:48:45.978Z,22.60
2022-08-22T18:51:30.433Z,22.50
2022-08-22T18:54:11.187Z,22.50
2022-08-22T18:57:00.046Z,22.40
2022-08-22T18:59:42.125Z,22.30
2022-08-22T19:02:27.209Z,22.30
2022-08-22T19:05:13.817Z,22.20
2022-08-22T19:07:51.127Z,22.20
2022-08-22T19:10:34.442Z,22.10
2022-08-22T19:13:30.501Z,21.90
2022-08-22T19:16:43.766Z,21.90
2022-08-22T19:19:56.074Z,21.90
2022-08-22T19:22:30.272Z,21.80
2022-08-22T19:25:17.701Z,21.80
2022-08-22T19:28:11.898Z,21.80
2022-08-22T19:31:16.496Z,21.70
2022-08-22T19:34:08.732Z,21.60
2022-08-22T19:36:36.221Z,21.60
2022-08-22T19:39:32.710Z,21.70
2022-08-22T19:42:01.605Z,21.50
2022-08-22T19:44:32.994Z,21.60
2022-08-22T19:47:18.232Z,21.60
2022-08-22T19:50:05.364Z,21.50
2022-08-22T19:52:46.565Z,21.50
2022-08-22T19:55:38.221Z,21.40
2022-08-22T19:58:32.548Z,21.40
2022-08-22T20:01:31.825Z,21.30
2022-08-22T20:04:20.709Z,21.30
2022-08-22T20:07:22.801Z,21.20
2022-08-22T20:10:37.085Z,21.20
2022-08-22T20:13:19.051Z,21.00
2022-08-22T20:16:23.623Z,21.10
2022-08-22T20:19:06.530Z,21.00
2022-08-22T20:21:44.173Z,21.00
2022-08-22T20:24:39.756Z,21.00
2022-08-22T20:27:18.610Z,21.00
2022-08-22T20:29:55.780Z,21.00
2022-08-22T20:32:24.383Z,20.90
2022-08-22T20:34:59.231Z,20.90
2022-08-22T20:38:02.807Z,20.90
2022-08-22T20:40:56.700Z,20.90
2022-08-22T20:43:45.808Z,20.80
2022-08-22T20:46:55.037Z,20.70
2022-08-22T20:49:42.421Z,20.60
2022-08-22T20:52:31.110Z,20.60
2022-08-22T20:55:21.656Z,20.60
2022-08-22T20:57:59.477Z,20.50
2022-08-22T21:00:47.941Z,20.40
2022-08-22T21:03:39.072Z,20.40
2022-08-22T21:06:16.784Z,20.40
2022-08-22T21:09:08.441Z,20.40
2022-08-22T21:11:41.727Z,20.30
2022-08-22T21:14:21.387Z,20.30
2022-08-22T21:16:49.054Z,20.40
2022-08-22T21:19:32.788Z,20.40
2022-08-22T21:22:25.894Z,20.40
2022-08-22T21:24:56.626Z,20.30
2022-08-22T21:27:34.042Z,20.20
2022-08-22T21:30:02.956Z,20.20
2022-08-22T21:32:37.786Z,20.10
2022-08-22T21:35:05.345Z,20.10
2022-08-22T21:37:35.801Z,20.00
2022-08-22T21:40:16.149Z,20.00
2022-08-22T21:42:45.435Z,20.10
2022-08-22T21:45:26.367Z,20.00
2022-08-22T21:47:53.546Z,19.90
2022-08-22T21:50:23.578Z,19.80
2022-08-22T21:52:56.388Z,19.70
2022-08-22T21:55:24.004Z,19.80
2022-08-22T21:58:08.968Z,19.70
2022-08-22T22:00:49.467Z,19.70
2022-08-22T22:03:19.601Z,19.60
2022-08-22T22:05:47.165Z,19.60
2022-08-22T22:08:14.092Z,19.70
2022-08-22T22:10:42.487Z,19.60
2022-08-22T22:13:09.995Z,19.60
2022-08-22T22:15:46.500Z,19.50
2022-08-22T22:18:15.235Z,19.60
2022-08-22T22:20:42.584Z,19.50
2022-08-22T22:23:10.004Z,19.40
2022-08-22T22:25:40.263Z,19.40
2022-08-22T22:28:21.908Z,19.40
2022-08-22T22:30:53.464Z,19.40
2022-08-22T22:33:21.637Z,19.50
2022-08-22T22:35:48.638Z,19.50
2022-08-22T22:38:16.956Z,19.50
2022-08-22T22:40:46.400Z,19.50
2022-08-22T22:43:13.627Z,19.50
2022-08-22T22:45:40.993Z,19.40
2022-08-22T22:48:08.327Z,19.40
2022-08-22T22:50:40.682Z,19.30
2022-08-22T22:53:09.489Z,19.30
2022-08-22T22:55:37.044Z,19.30
2022-08-22T22:58:08.757Z,19.20
2022-08-22T23:00:37.436Z,19.30
2022-08-22T23:03:05.440Z,19.30
2022-08-22T23:05:33.755Z,19.40
2022-08-22T23:08:01.146Z,19.40
2022-08-22T23:10:29.226Z,19.40
2022-08-22T23:12:56.909Z,19.40
2022-08-22T23:15:24.073Z,19.40
2022-08-22T23:17:51.233Z,19.30
2022-08-22T23:20:18.536Z,19.30
2022-08-22T23:22:46.041Z,19.30
2022-08-22T23:25:13.098Z,19.30
2022-08-22T23:27:40.344Z,19.30
2022-08-22T23:30:11.222Z,19.20
2022-08-22T23:32:38.186Z,19.20
2022-08-22T23:35:05.985Z,19.10
2022-08-22T23:37:33.112Z,19.10
2022-08-22T23:40:01.421Z,19.00
2022-08-22T23:42:29.866Z,19.00
2022-08-22T23:44:56.809Z,18.90
2022-08-22T23:47:23.803Z,18.90
2022-08-22T23:49:50.941Z,18.90
2022-08-22T23:52:17.889Z,19.00
2022-08-22T23:54:44.857Z,18.90
2022-08-22T23:57:12.834Z,19.00
2022-08-22T23:59:44.567Z,18.90
